sensor_id;sensor_type;location;lat;lon;timestamp;pressure;altitude;pressure_sealevel;temperature;humidity
75855;BME280;64502;59.976;30.316;2024-01-07T00:02:19;102479.44;;;-14.30;69.84
75855;BME280;64502;59.976;30.316;2024-01-07T00:04:45;102474.94;;;-14.34;70.45
75855;BME280;64502;59.976;30.316;2024-01-07T00:07:10;102472.28;;;-14.36;70.90
75855;BME280;64502;59.976;30.316;2024-01-07T00:09:36;102479.88;;;-14.36;71.51
75855;BME280;64502;59.976;30.316;2024-01-07T00:12:01;102477.56;;;-14.33;70.52
75855;BME280;64502;59.976;30.316;2024-01-07T00:14:27;102477.69;;;-14.31;70.64
75855;BME280;64502;59.976;30.316;2024-01-07T00:16:53;102481.88;;;-14.32;70.06
75855;BME280;64502;59.976;30.316;2024-01-07T00:19:18;102485.94;;;-14.34;70.14
75855;BME280;64502;59.976;30.316;2024-01-07T00:21:43;102486.50;;;-14.38;70.08
75855;BME280;64502;59.976;30.316;2024-01-07T00:24:09;102492.44;;;-14.49;69.74
75855;BME280;64502;59.976;30.316;2024-01-07T00:26:34;102491.06;;;-14.57;70.72
75855;BME280;64502;59.976;30.316;2024-01-07T00:29:00;102489.84;;;-14.62;70.78
75855;BME280;64502;59.976;30.316;2024-01-07T00:31:26;102506.69;;;-14.63;70.90
75855;BME280;64502;59.976;30.316;2024-01-07T00:33:51;102506.03;;;-14.60;71.06
75855;BME280;64502;59.976;30.316;2024-01-07T00:36:17;102501.97;;;-14.58;71.31
75855;BME280;64502;59.976;30.316;2024-01-07T00:38:43;102503.19;;;-14.53;71.70
75855;BME280;64502;59.976;30.316;2024-01-07T00:41:08;102506.03;;;-14.48;70.95
75855;BME280;64502;59.976;30.316;2024-01-07T00:43:34;102507.00;;;-14.46;71.09
75855;BME280;64502;59.976;30.316;2024-01-07T00:46:02;102502.81;;;-14.46;71.34
75855;BME280;64502;59.976;30.316;2024-01-07T00:48:27;102505.34;;;-14.46;70.73
75855;BME280;64502;59.976;30.316;2024-01-07T00:50:53;102510.41;;;-14.46;70.94
75855;BME280;64502;59.976;30.316;2024-01-07T00:53:20;102518.25;;;-14.43;70.76
75855;BME280;64502;59.976;30.316;2024-01-07T00:55:45;102521.75;;;-14.41;71.27
75855;BME280;64502;59.976;30.316;2024-01-07T00:58:11;102518.69;;;-14.37;71.45
75855;BME280;64502;59.976;30.316;2024-01-07T01:00:36;102518.69;;;-14.37;71.55
75855;BME280;64502;59.976;30.316;2024-01-07T01:03:02;102517.03;;;-14.36;71.21
75855;BME280;64502;59.976;30.316;2024-01-07T01:05:30;102519.69;;;-14.35;71.13
75855;BME280;64502;59.976;30.316;2024-01-07T01:07:56;102528.25;;;-14.33;70.39
75855;BME280;64502;59.976;30.316;2024-01-07T01:10:21;102522.31;;;-14.33;70.24
75855;BME280;64502;59.976;30.316;2024-01-07T01:12:47;102527.16;;;-14.36;70.51
75855;BME280;64502;59.976;30.316;2024-01-07T01:15:12;102528.50;;;-14.41;70.22
75855;BME280;64502;59.976;30.316;2024-01-07T01:17:42;102536.66;;;-14.45;70.96
75855;BME280;64502;59.976;30.316;2024-01-07T01:20:07;102535.66;;;-14.47;70.97
75855;BME280;64502;59.976;30.316;2024-01-07T01:22:33;102538.06;;;-14.49;70.72
75855;BME280;64502;59.976;30.316;2024-01-07T01:24:59;102536.19;;;-14.51;70.52
75855;BME280;64502;59.976;30.316;2024-01-07T01:27:25;102539.53;;;-14.52;70.51
75855;BME280;64502;59.976;30.316;2024-01-07T01:29:50;102534.03;;;-14.59;70.16
75855;BME280;64502;59.976;30.316;2024-01-07T01:32:16;102536.44;;;-14.60;70.41
75855;BME280;64502;59.976;30.316;2024-01-07T01:34:41;102543.81;;;-14.63;70.64
75855;BME280;64502;59.976;30.316;2024-01-07T01:37:10;102540.28;;;-14.65;70.38
75855;BME280;64502;59.976;30.316;2024-01-07T01:39:40;102546.00;;;-14.68;69.96
75855;BME280;64502;59.976;30.316;2024-01-07T01:42:05;102547.44;;;-14.71;70.37
75855;BME280;64502;59.976;30.316;2024-01-07T01:44:31;102555.69;;;-14.74;70.20
75855;BME280;64502;59.976;30.316;2024-01-07T01:46:57;102560.56;;;-14.77;70.01
75855;BME280;64502;59.976;30.316;2024-01-07T01:49:23;102559.44;;;-14.81;69.96
75855;BME280;64502;59.976;30.316;2024-01-07T01:51:50;102561.75;;;-14.84;70.03
75855;BME280;64502;59.976;30.316;2024-01-07T01:54:17;102569.09;;;-14.87;70.08
75855;BME280;64502;59.976;30.316;2024-01-07T01:56:43;102570.53;;;-14.90;70.25
75855;BME280;64502;59.976;30.316;2024-01-07T01:59:08;102571.19;;;-14.93;70.05
75855;BME280;64502;59.976;30.316;2024-01-07T02:01:34;102577.91;;;-14.93;69.99
75855;BME280;64502;59.976;30.316;2024-01-07T02:04:00;102573.63;;;-14.94;69.75
75855;BME280;64502;59.976;30.316;2024-01-07T02:06:25;102569.97;;;-14.98;70.16
75855;BME280;64502;59.976;30.316;2024-01-07T02:08:51;102582.53;;;-15.00;69.67
75855;BME280;64502;59.976;30.316;2024-01-07T02:11:19;102582.38;;;-15.01;69.56
75855;BME280;64502;59.976;30.316;2024-01-07T02:13:45;102588.25;;;-15.02;69.91
75855;BME280;64502;59.976;30.316;2024-01-07T02:16:11;102578.84;;;-15.03;70.18
75855;BME280;64502;59.976;30.316;2024-01-07T02:18:40;102591.41;;;-15.05;69.66
75855;BME280;64502;59.976;30.316;2024-01-07T02:21:07;102585.56;;;-15.04;70.06
75855;BME280;64502;59.976;30.316;2024-01-07T02:23:33;102582.06;;;-15.06;69.89
75855;BME280;64502;59.976;30.316;2024-01-07T02:25:58;102579.63;;;-15.04;69.64
75855;BME280;64502;59.976;30.316;2024-01-07T02:28:24;102592.94;;;-15.07;69.93
75855;BME280;64502;59.976;30.316;2024-01-07T02:30:49;102594.38;;;-15.10;69.23
75855;BME280;64502;59.976;30.316;2024-01-07T02:33:15;102590.75;;;-15.14;69.72
75855;BME280;64502;59.976;30.316;2024-01-07T02:35:40;102597.09;;;-15.19;69.55
75855;BME280;64502;59.976;30.316;2024-01-07T02:38:06;102593.44;;;-15.23;69.33
75855;BME280;64502;59.976;30.316;2024-01-07T02:40:32;102602.56;;;-15.25;69.52
75855;BME280;64502;59.976;30.316;2024-01-07T02:42:57;102603.97;;;-15.28;69.66
75855;BME280;64502;59.976;30.316;2024-01-07T02:45:24;102606.41;;;-15.30;69.97
75855;BME280;64502;59.976;30.316;2024-01-07T02:47:50;102607.91;;;-15.32;69.45
75855;BME280;64502;59.976;30.316;2024-01-07T02:50:15;102611.22;;;-15.33;69.90
75855;BME280;64502;59.976;30.316;2024-01-07T02:52:42;102609.44;;;-15.34;69.44
75855;BME280;64502;59.976;30.316;2024-01-07T02:55:08;102613.63;;;-15.34;69.93
75855;BME280;64502;59.976;30.316;2024-01-07T02:57:33;102614.28;;;-15.37;69.50
75855;BME280;64502;59.976;30.316;2024-01-07T02:59:59;102613.03;;;-15.42;69.71
75855;BME280;64502;59.976;30.316;2024-01-07T03:02:24;102614.81;;;-15.41;69.88
75855;BME280;64502;59.976;30.316;2024-01-07T03:04:50;102612.28;;;-15.41;69.80
75855;BME280;64502;59.976;30.316;2024-01-07T03:07:16;102621.91;;;-15.47;70.10
75855;BME280;64502;59.976;30.316;2024-01-07T03:09:41;102613.84;;;-15.53;70.12
75855;BME280;64502;59.976;30.316;2024-01-07T03:12:07;102620.75;;;-15.62;69.42
75855;BME280;64502;59.976;30.316;2024-01-07T03:14:33;102620.50;;;-15.66;70.30
75855;BME280;64502;59.976;30.316;2024-01-07T03:16:58;102626.44;;;-15.65;70.34
75855;BME280;64502;59.976;30.316;2024-01-07T03:19:24;102622.03;;;-15.68;69.69
75855;BME280;64502;59.976;30.316;2024-01-07T03:21:49;102617.41;;;-15.73;69.26
75855;BME280;64502;59.976;30.316;2024-01-07T03:24:15;102620.84;;;-15.83;70.04
75855;BME280;64502;59.976;30.316;2024-01-07T03:26:41;102627.06;;;-15.90;70.63
75855;BME280;64502;59.976;30.316;2024-01-07T03:29:06;102624.56;;;-16.00;70.60
75855;BME280;64502;59.976;30.316;2024-01-07T03:31:32;102629.25;;;-16.04;70.82
75855;BME280;64502;59.976;30.316;2024-01-07T03:33:58;102628.91;;;-16.09;70.24
75855;BME280;64502;59.976;30.316;2024-01-07T03:36:24;102632.69;;;-16.14;71.01
75855;BME280;64502;59.976;30.316;2024-01-07T03:38:49;102626.38;;;-16.19;70.83
75855;BME280;64502;59.976;30.316;2024-01-07T03:41:19;102636.88;;;-16.25;70.24
75855;BME280;64502;59.976;30.316;2024-01-07T03:43:46;102639.03;;;-16.29;71.00
75855;BME280;64502;59.976;30.316;2024-01-07T03:46:12;102648.00;;;-16.33;70.79
75855;BME280;64502;59.976;30.316;2024-01-07T03:48:38;102645.25;;;-16.36;70.65
75855;BME280;64502;59.976;30.316;2024-01-07T03:51:04;102646.50;;;-16.41;70.99
75855;BME280;64502;59.976;30.316;2024-01-07T03:53:30;102659.53;;;-16.47;71.23
75855;BME280;64502;59.976;30.316;2024-01-07T03:55:55;102660.88;;;-16.50;71.00
75855;BME280;64502;59.976;30.316;2024-01-07T03:58:21;102663.78;;;-16.56;70.89
75855;BME280;64502;59.976;30.316;2024-01-07T04:00:46;102665.72;;;-16.64;71.06
75855;BME280;64502;59.976;30.316;2024-01-07T04:03:12;102669.75;;;-16.66;70.97
75855;BME280;64502;59.976;30.316;2024-01-07T04:05:38;102669.97;;;-16.73;71.18
75855;BME280;64502;59.976;30.316;2024-01-07T04:08:03;102672.19;;;-16.77;71.16
75855;BME280;64502;59.976;30.316;2024-01-07T04:10:29;102671.66;;;-16.84;70.78
75855;BME280;64502;59.976;30.316;2024-01-07T04:12:55;102674.69;;;-16.88;70.59
75855;BME280;64502;59.976;30.316;2024-01-07T04:15:21;102673.66;;;-16.90;70.63
75855;BME280;64502;59.976;30.316;2024-01-07T04:17:47;102681.84;;;-16.92;70.90
75855;BME280;64502;59.976;30.316;2024-01-07T04:20:13;102675.69;;;-16.96;71.58
75855;BME280;64502;59.976;30.316;2024-01-07T04:22:39;102672.38;;;-16.95;71.20
75855;BME280;64502;59.976;30.316;2024-01-07T04:25:05;102678.31;;;-16.94;71.08
75855;BME280;64502;59.976;30.316;2024-01-07T04:27:37;102671.50;;;-16.95;70.57
75855;BME280;64502;59.976;30.316;2024-01-07T04:30:05;102669.88;;;-16.95;70.51
75855;BME280;64502;59.976;30.316;2024-01-07T04:32:30;102673.25;;;-16.94;70.92
75855;BME280;64502;59.976;30.316;2024-01-07T04:34:56;102680.22;;;-16.92;70.95
75855;BME280;64502;59.976;30.316;2024-01-07T04:37:24;102687.06;;;-16.91;70.50
75855;BME280;64502;59.976;30.316;2024-01-07T04:39:49;102690.31;;;-16.92;70.53
75855;BME280;64502;59.976;30.316;2024-01-07T04:42:16;102694.38;;;-16.94;71.04
75855;BME280;64502;59.976;30.316;2024-01-07T04:44:42;102694.84;;;-16.98;70.27
75855;BME280;64502;59.976;30.316;2024-01-07T04:47:27;102686.16;;;-17.02;71.01
75855;BME280;64502;59.976;30.316;2024-01-07T04:49:53;102692.06;;;-17.01;70.55
75855;BME280;64502;59.976;30.316;2024-01-07T04:52:24;102689.41;;;-17.03;70.86
75855;BME280;64502;59.976;30.316;2024-01-07T04:54:55;102699.50;;;-17.03;70.87
75855;BME280;64502;59.976;30.316;2024-01-07T04:57:21;102696.25;;;-17.02;71.16
75855;BME280;64502;59.976;30.316;2024-01-07T04:59:48;102697.88;;;-17.02;70.11
75855;BME280;64502;59.976;30.316;2024-01-07T05:02:14;102695.47;;;-17.01;70.69
75855;BME280;64502;59.976;30.316;2024-01-07T05:04:41;102699.91;;;-16.98;71.20
75855;BME280;64502;59.976;30.316;2024-01-07T05:07:07;102697.53;;;-16.96;70.75
75855;BME280;64502;59.976;30.316;2024-01-07T05:09:33;102710.00;;;-16.98;70.96
75855;BME280;64502;59.976;30.316;2024-01-07T05:11:59;102699.75;;;-16.99;70.27
75855;BME280;64502;59.976;30.316;2024-01-07T05:14:25;102708.09;;;-17.01;70.29
75855;BME280;64502;59.976;30.316;2024-01-07T05:16:50;102713.03;;;-17.02;70.36
75855;BME280;64502;59.976;30.316;2024-01-07T05:19:16;102720.47;;;-17.04;70.48
75855;BME280;64502;59.976;30.316;2024-01-07T05:21:41;102716.91;;;-17.06;70.27
75855;BME280;64502;59.976;30.316;2024-01-07T05:24:07;102718.28;;;-17.09;70.31
75855;BME280;64502;59.976;30.316;2024-01-07T05:26:42;102720.69;;;-17.11;70.90
75855;BME280;64502;59.976;30.316;2024-01-07T05:29:08;102732.31;;;-17.13;70.58
75855;BME280;64502;59.976;30.316;2024-01-07T05:31:34;102740.34;;;-17.17;71.14
75855;BME280;64502;59.976;30.316;2024-01-07T05:33:59;102735.28;;;-17.17;70.55
75855;BME280;64502;59.976;30.316;2024-01-07T05:36:25;102744.38;;;-17.19;70.59
75855;BME280;64502;59.976;30.316;2024-01-07T05:38:51;102744.38;;;-17.19;70.99
75855;BME280;64502;59.976;30.316;2024-01-07T05:41:16;102745.13;;;-17.20;71.01
75855;BME280;64502;59.976;30.316;2024-01-07T05:43:42;102739.22;;;-17.20;71.15
75855;BME280;64502;59.976;30.316;2024-01-07T05:46:08;102745.59;;;-17.24;70.92
75855;BME280;64502;59.976;30.316;2024-01-07T05:48:43;102742.97;;;-17.26;70.68
75855;BME280;64502;59.976;30.316;2024-01-07T05:51:13;102746.09;;;-17.28;71.03
75855;BME280;64502;59.976;30.316;2024-01-07T05:53:43;102747.88;;;-17.27;70.77
75855;BME280;64502;59.976;30.316;2024-01-07T05:56:08;102750.22;;;-17.39;70.16
75855;BME280;64502;59.976;30.316;2024-01-07T05:58:34;102763.66;;;-17.49;70.04
75855;BME280;64502;59.976;30.316;2024-01-07T06:01:00;102760.22;;;-17.59;70.92
75855;BME280;64502;59.976;30.316;2024-01-07T06:03:26;102762.41;;;-17.73;70.34
75855;BME280;64502;59.976;30.316;2024-01-07T06:05:51;102772.28;;;-17.84;70.76
75855;BME280;64502;59.976;30.316;2024-01-07T06:08:17;102776.25;;;-17.97;70.23
75855;BME280;64502;59.976;30.316;2024-01-07T06:10:43;102783.13;;;-18.04;70.58
75855;BME280;64502;59.976;30.316;2024-01-07T06:13:08;102785.22;;;-18.09;71.24
75855;BME280;64502;59.976;30.316;2024-01-07T06:15:34;102788.34;;;-18.11;71.40
75855;BME280;64502;59.976;30.316;2024-01-07T06:18:00;102796.81;;;-18.11;71.19
75855;BME280;64502;59.976;30.316;2024-01-07T06:20:25;102793.81;;;-18.07;70.87
75855;BME280;64502;59.976;30.316;2024-01-07T06:22:51;102799.00;;;-18.05;70.62
75855;BME280;64502;59.976;30.316;2024-01-07T06:25:16;102790.69;;;-18.04;70.89
75855;BME280;64502;59.976;30.316;2024-01-07T06:27:42;102795.56;;;-18.06;70.35
75855;BME280;64502;59.976;30.316;2024-01-07T06:30:08;102795.88;;;-18.03;71.64
75855;BME280;64502;59.976;30.316;2024-01-07T06:32:34;102798.66;;;-18.00;71.31
75855;BME280;64502;59.976;30.316;2024-01-07T06:35:01;102808.25;;;-17.96;70.64
75855;BME280;64502;59.976;30.316;2024-01-07T06:37:28;102809.28;;;-17.94;70.67
75855;BME280;64502;59.976;30.316;2024-01-07T06:39:56;102817.88;;;-17.92;71.42
75855;BME280;64502;59.976;30.316;2024-01-07T06:42:22;102809.09;;;-17.86;71.78
75855;BME280;64502;59.976;30.316;2024-01-07T06:44:47;102808.50;;;-17.84;71.10
75855;BME280;64502;59.976;30.316;2024-01-07T06:47:13;102810.53;;;-17.80;70.96
75855;BME280;64502;59.976;30.316;2024-01-07T06:49:40;102803.72;;;-17.81;71.34
75855;BME280;64502;59.976;30.316;2024-01-07T06:52:05;102809.13;;;-17.76;70.83
75855;BME280;64502;59.976;30.316;2024-01-07T06:54:31;102815.34;;;-17.73;71.68
75855;BME280;64502;59.976;30.316;2024-01-07T06:56:57;102820.16;;;-17.65;71.22
75855;BME280;64502;59.976;30.316;2024-01-07T06:59:22;102817.28;;;-17.60;70.82
75855;BME280;64502;59.976;30.316;2024-01-07T07:01:48;102826.94;;;-17.56;70.82
75855;BME280;64502;59.976;30.316;2024-01-07T07:04:13;102828.34;;;-17.49;71.05
75855;BME280;64502;59.976;30.316;2024-01-07T07:06:39;102832.16;;;-17.44;70.73
75855;BME280;64502;59.976;30.316;2024-01-07T07:09:04;102823.88;;;-17.43;70.28
75855;BME280;64502;59.976;30.316;2024-01-07T07:11:30;102824.47;;;-17.46;70.88
75855;BME280;64502;59.976;30.316;2024-01-07T07:13:57;102834.56;;;-17.46;70.66
75855;BME280;64502;59.976;30.316;2024-01-07T07:16:23;102825.63;;;-17.42;70.80
75855;BME280;64502;59.976;30.316;2024-01-07T07:18:48;102832.44;;;-17.41;70.62
75855;BME280;64502;59.976;30.316;2024-01-07T07:21:14;102837.00;;;-17.37;71.29
75855;BME280;64502;59.976;30.316;2024-01-07T07:23:39;102840.69;;;-17.33;70.22
75855;BME280;64502;59.976;30.316;2024-01-07T07:26:06;102833.38;;;-17.30;70.10
75855;BME280;64502;59.976;30.316;2024-01-07T07:28:33;102840.47;;;-17.26;71.06
75855;BME280;64502;59.976;30.316;2024-01-07T07:30:59;102840.47;;;-17.26;70.79
75855;BME280;64502;59.976;30.316;2024-01-07T07:33:24;102842.66;;;-17.20;70.49
75855;BME280;64502;59.976;30.316;2024-01-07T07:35:50;102842.03;;;-17.18;70.77
75855;BME280;64502;59.976;30.316;2024-01-07T07:38:16;102843.03;;;-17.16;70.28
75855;BME280;64502;59.976;30.316;2024-01-07T07:40:41;102846.84;;;-17.11;70.57
75855;BME280;64502;59.976;30.316;2024-01-07T07:43:08;102840.81;;;-17.13;70.39
75855;BME280;64502;59.976;30.316;2024-01-07T07:45:33;102846.13;;;-17.10;70.36
75855;BME280;64502;59.976;30.316;2024-01-07T07:48:00;102845.50;;;-17.07;71.07
75855;BME280;64502;59.976;30.316;2024-01-07T07:50:25;102853.34;;;-17.04;70.42
75855;BME280;64502;59.976;30.316;2024-01-07T07:52:51;102853.72;;;-16.99;70.64
75855;BME280;64502;59.976;30.316;2024-01-07T07:55:16;102861.72;;;-16.95;70.46
75855;BME280;64502;59.976;30.316;2024-01-07T07:57:43;102864.66;;;-16.90;70.12
75855;BME280;64502;59.976;30.316;2024-01-07T08:00:09;102857.84;;;-16.81;70.25
75855;BME280;64502;59.976;30.316;2024-01-07T08:02:38;102861.00;;;-16.73;70.19
75855;BME280;64502;59.976;30.316;2024-01-07T08:05:05;102861.53;;;-16.67;69.23
75855;BME280;64502;59.976;30.316;2024-01-07T08:07:31;102860.91;;;-16.65;69.69
75855;BME280;64502;59.976;30.316;2024-01-07T08:09:56;102872.03;;;-16.63;68.99
75855;BME280;64502;59.976;30.316;2024-01-07T08:12:23;102864.88;;;-16.58;69.00
75855;BME280;64502;59.976;30.316;2024-01-07T08:14:48;102873.09;;;-16.50;68.60
75855;BME280;64502;59.976;30.316;2024-01-07T08:17:14;102869.34;;;-16.35;68.57
75855;BME280;64502;59.976;30.316;2024-01-07T08:19:40;102876.72;;;-16.18;68.54
75855;BME280;64502;59.976;30.316;2024-01-07T08:22:06;102871.56;;;-15.99;67.64
75855;BME280;64502;59.976;30.316;2024-01-07T08:24:31;102877.28;;;-15.81;67.19
75855;BME280;64502;59.976;30.316;2024-01-07T08:26:57;102874.63;;;-15.72;67.58
75855;BME280;64502;59.976;30.316;2024-01-07T08:29:23;102877.75;;;-15.64;67.95
75855;BME280;64502;59.976;30.316;2024-01-07T08:31:48;102882.28;;;-15.50;67.59
75855;BME280;64502;59.976;30.316;2024-01-07T08:34:14;102879.63;;;-15.41;66.79
75855;BME280;64502;59.976;30.316;2024-01-07T08:36:41;102883.56;;;-15.45;67.23
75855;BME280;64502;59.976;30.316;2024-01-07T08:39:06;102878.50;;;-15.45;67.31
75855;BME280;64502;59.976;30.316;2024-01-07T08:41:33;102883.16;;;-15.39;67.03
75855;BME280;64502;59.976;30.316;2024-01-07T08:43:59;102883.41;;;-15.36;66.91
75855;BME280;64502;59.976;30.316;2024-01-07T08:46:25;102887.06;;;-15.23;66.94
75855;BME280;64502;59.976;30.316;2024-01-07T08:48:52;102881.88;;;-15.14;66.34
75855;BME280;64502;59.976;30.316;2024-01-07T08:51:17;102876.66;;;-15.05;66.83
75855;BME280;64502;59.976;30.316;2024-01-07T08:53:43;102877.16;;;-14.99;66.42
75855;BME280;64502;59.976;30.316;2024-01-07T08:56:08;102884.72;;;-14.89;66.76
75855;BME280;64502;59.976;30.316;2024-01-07T08:58:34;102870.38;;;-14.78;65.88
75855;BME280;64502;59.976;30.316;2024-01-07T09:01:00;102869.19;;;-14.71;66.34
75855;BME280;64502;59.976;30.316;2024-01-07T09:03:25;102873.34;;;-14.62;65.81
75855;BME280;64502;59.976;30.316;2024-01-07T09:05:52;102878.47;;;-14.50;65.54
75855;BME280;64502;59.976;30.316;2024-01-07T09:08:17;102878.59;;;-14.48;64.99
75855;BME280;64502;59.976;30.316;2024-01-07T09:10:43;102883.97;;;-14.56;64.60
75855;BME280;64502;59.976;30.316;2024-01-07T09:13:09;102886.38;;;-14.57;64.71
75855;BME280;64502;59.976;30.316;2024-01-07T09:15:34;102880.22;;;-14.49;64.41
75855;BME280;64502;59.976;30.316;2024-01-07T09:18:00;102886.75;;;-14.41;64.73
75855;BME280;64502;59.976;30.316;2024-01-07T09:20:26;102888.84;;;-14.25;64.45
75855;BME280;64502;59.976;30.316;2024-01-07T09:22:51;102892.91;;;-14.05;64.07
75855;BME280;64502;59.976;30.316;2024-01-07T09:25:17;102887.03;;;-13.94;63.30
75855;BME280;64502;59.976;30.316;2024-01-07T09:27:42;102889.66;;;-13.92;63.37
75855;BME280;64502;59.976;30.316;2024-01-07T09:30:09;102892.75;;;-13.96;61.42
75855;BME280;64502;59.976;30.316;2024-01-07T09:32:41;102896.25;;;-13.94;63.06
75855;BME280;64502;59.976;30.316;2024-01-07T09:35:07;102903.81;;;-13.84;62.56
75855;BME280;64502;59.976;30.316;2024-01-07T09:37:34;102899.63;;;-13.83;62.83
75855;BME280;64502;59.976;30.316;2024-01-07T09:40:02;102888.38;;;-13.75;62.57
75855;BME280;64502;59.976;30.316;2024-01-07T09:42:29;102894.28;;;-13.65;62.88
75855;BME280;64502;59.976;30.316;2024-01-07T09:44:55;102899.94;;;-13.45;62.69
75855;BME280;64502;59.976;30.316;2024-01-07T09:47:21;102899.88;;;-13.35;61.27
75855;BME280;64502;59.976;30.316;2024-01-07T09:49:49;102900.22;;;-13.30;62.02
75855;BME280;64502;59.976;30.316;2024-01-07T09:52:14;102899.19;;;-13.21;61.67
75855;BME280;64502;59.976;30.316;2024-01-07T09:54:40;102892.03;;;-13.03;60.43
75855;BME280;64502;59.976;30.316;2024-01-07T09:57:07;102894.69;;;-12.89;59.48
75855;BME280;64502;59.976;30.316;2024-01-07T09:59:36;102887.28;;;-12.75;61.29
75855;BME280;64502;59.976;30.316;2024-01-07T10:02:02;102892.13;;;-12.54;61.68
75855;BME280;64502;59.976;30.316;2024-01-07T10:04:28;102891.72;;;-12.23;60.74
75855;BME280;64502;59.976;30.316;2024-01-07T10:06:54;102888.66;;;-11.94;61.93
75855;BME280;64502;59.976;30.316;2024-01-07T10:09:24;102890.69;;;-11.64;61.14
75855;BME280;64502;59.976;30.316;2024-01-07T10:11:51;102887.53;;;-11.34;60.34
75855;BME280;64502;59.976;30.316;2024-01-07T10:14:17;102884.72;;;-11.12;58.19
75855;BME280;64502;59.976;30.316;2024-01-07T10:16:44;102889.22;;;-10.95;60.03
75855;BME280;64502;59.976;30.316;2024-01-07T10:19:11;102891.41;;;-10.75;59.50
75855;BME280;64502;59.976;30.316;2024-01-07T10:21:36;102894.50;;;-10.39;59.74
75855;BME280;64502;59.976;30.316;2024-01-07T10:24:12;102894.50;;;-9.96;59.36
75855;BME280;64502;59.976;30.316;2024-01-07T10:26:39;102886.34;;;-9.62;57.24
75855;BME280;64502;59.976;30.316;2024-01-07T10:29:05;102891.91;;;-9.40;57.85
75855;BME280;64502;59.976;30.316;2024-01-07T10:31:35;102890.88;;;-9.13;56.17
75855;BME280;64502;59.976;30.316;2024-01-07T10:34:00;102900.63;;;-8.91;55.22
75855;BME280;64502;59.976;30.316;2024-01-07T10:36:27;102901.78;;;-8.86;57.04
75855;BME280;64502;59.976;30.316;2024-01-07T10:38:54;102897.44;;;-8.73;54.51
75855;BME280;64502;59.976;30.316;2024-01-07T10:41:21;102900.59;;;-8.62;53.28
75855;BME280;64502;59.976;30.316;2024-01-07T10:43:47;102899.25;;;-8.55;55.15
75855;BME280;64502;59.976;30.316;2024-01-07T10:46:14;102907.19;;;-8.34;54.58
75855;BME280;64502;59.976;30.316;2024-01-07T10:48:59;102910.56;;;-8.19;54.12
75855;BME280;64502;59.976;30.316;2024-01-07T10:51:27;102902.88;;;-8.19;53.03
75855;BME280;64502;59.976;30.316;2024-01-07T10:53:53;102899.53;;;-8.18;53.29
75855;BME280;64502;59.976;30.316;2024-01-07T10:56:31;102905.28;;;-8.22;52.48
75855;BME280;64502;59.976;30.316;2024-01-07T10:58:58;102899.72;;;-8.30;52.63
75855;BME280;64502;59.976;30.316;2024-01-07T11:01:25;102897.50;;;-8.56;52.85
75855;BME280;64502;59.976;30.316;2024-01-07T11:04:06;102905.22;;;-8.86;53.86
75855;BME280;64502;59.976;30.316;2024-01-07T11:06:43;102898.44;;;-9.15;54.12
75855;BME280;64502;59.976;30.316;2024-01-07T11:09:14;102898.59;;;-9.42;54.30
75855;BME280;64502;59.976;30.316;2024-01-07T11:11:42;102902.06;;;-9.69;53.90
75855;BME280;64502;59.976;30.316;2024-01-07T11:14:43;102905.59;;;-9.82;55.39
75855;BME280;64502;59.976;30.316;2024-01-07T11:20:11;102905.75;;;-10.07;55.41
75855;BME280;64502;59.976;30.316;2024-01-07T11:22:37;102909.56;;;-10.29;55.92
75855;BME280;64502;59.976;30.316;2024-01-07T11:25:32;102905.59;;;-10.52;56.76
75855;BME280;64502;59.976;30.316;2024-01-07T11:28:00;102913.94;;;-10.67;56.73
75855;BME280;64502;59.976;30.316;2024-01-07T11:30:26;102904.84;;;-10.77;55.92
75855;BME280;64502;59.976;30.316;2024-01-07T11:33:01;102905.13;;;-10.99;56.81
75855;BME280;64502;59.976;30.316;2024-01-07T11:35:55;102907.72;;;-11.24;57.62
75855;BME280;64502;59.976;30.316;2024-01-07T11:38:24;102917.66;;;-11.41;57.22
75855;BME280;64502;59.976;30.316;2024-01-07T11:40:50;102915.78;;;-11.56;56.98
75855;BME280;64502;59.976;30.316;2024-01-07T11:43:16;102915.63;;;-11.71;57.14
75855;BME280;64502;59.976;30.316;2024-01-07T11:45:42;102922.94;;;-11.89;58.25
75855;BME280;64502;59.976;30.316;2024-01-07T11:48:07;102916.91;;;-12.03;57.53
75855;BME280;64502;59.976;30.316;2024-01-07T11:50:35;102921.78;;;-12.18;58.66
75855;BME280;64502;59.976;30.316;2024-01-07T11:53:01;102912.19;;;-12.34;59.42
75855;BME280;64502;59.976;30.316;2024-01-07T11:55:27;102920.19;;;-12.53;59.27
75855;BME280;64502;59.976;30.316;2024-01-07T11:57:55;102924.28;;;-12.66;59.37
75855;BME280;64502;59.976;30.316;2024-01-07T12:00:21;102931.06;;;-12.79;59.48
75855;BME280;64502;59.976;30.316;2024-01-07T12:02:47;102921.88;;;-12.88;60.74
75855;BME280;64502;59.976;30.316;2024-01-07T12:05:12;102925.19;;;-13.01;60.60
75855;BME280;64502;59.976;30.316;2024-01-07T12:07:41;102921.50;;;-13.16;61.31
75855;BME280;64502;59.976;30.316;2024-01-07T12:10:08;102915.47;;;-13.30;60.84
75855;BME280;64502;59.976;30.316;2024-01-07T12:12:39;102922.16;;;-13.43;61.75
75855;BME280;64502;59.976;30.316;2024-01-07T12:15:05;102923.34;;;-13.49;61.79
75855;BME280;64502;59.976;30.316;2024-01-07T12:17:32;102922.78;;;-13.57;61.82
75855;BME280;64502;59.976;30.316;2024-01-07T12:19:57;102928.16;;;-13.64;61.36
75855;BME280;64502;59.976;30.316;2024-01-07T12:22:23;102924.28;;;-13.71;62.10
75855;BME280;64502;59.976;30.316;2024-01-07T12:25:00;102922.16;;;-13.76;62.19
75855;BME280;64502;59.976;30.316;2024-01-07T12:27:26;102922.81;;;-13.79;62.40
75855;BME280;64502;59.976;30.316;2024-01-07T12:29:56;102925.91;;;-13.83;61.92
75855;BME280;64502;59.976;30.316;2024-01-07T12:32:22;102933.00;;;-13.89;62.49